sensor_id;sensor_type;location;lat;lon;timestamp;pressure;altitude;pressure_sealevel;temperature;humidity
30730;BME280;17476;48.458;7.928;2023-04-01T00:02:08;98783.91;;;9.76;96.08
30730;BME280;17476;48.458;7.928;2023-04-01T00:04:34;98783.09;;;9.75;96.38
30730;BME280;17476;48.458;7.928;2023-04-01T00:07:00;98784.88;;;9.75;95.54
30730;BME280;17476;48.458;7.928;2023-04-01T00:09:27;98793.53;;;9.75;96.72
30730;BME280;17476;48.458;7.928;2023-04-01T00:11:53;98788.69;;;9.72;95.31
30730;BME280;17476;48.458;7.928;2023-04-01T00:14:18;98787.94;;;9.78;94.39
30730;BME280;17476;48.458;7.928;2023-04-01T00:16:44;98787.94;;;9.78;94.30
30730;BME280;17476;48.458;7.928;2023-04-01T00:19:10;98784.34;;;9.79;93.94
30730;BME280;17476;48.458;7.928;2023-04-01T00:21:36;98775.69;;;9.79;91.79
30730;BME280;17476;48.458;7.928;2023-04-01T00:24:02;98776.91;;;9.76;94.05
30730;BME280;17476;48.458;7.928;2023-04-01T00:26:28;98772.28;;;9.78;91.89
30730;BME280;17476;48.458;7.928;2023-04-01T00:28:54;98773.28;;;9.77;91.42
30730;BME280;17476;48.458;7.928;2023-04-01T00:31:20;98783.28;;;9.74;91.94
30730;BME280;17476;48.458;7.928;2023-04-01T00:33:46;98790.31;;;9.73;92.35
30730;BME280;17476;48.458;7.928;2023-04-01T00:36:16;98786.09;;;9.72;92.05
30730;BME280;17476;48.458;7.928;2023-04-01T00:38:42;98776.81;;;9.70;90.31
30730;BME280;17476;48.458;7.928;2023-04-01T00:41:10;98781.59;;;9.66;90.29
30730;BME280;17476;48.458;7.928;2023-04-01T00:43:40;98779.13;;;9.58;92.12
30730;BME280;17476;48.458;7.928;2023-04-01T00:46:06;98785.88;;;9.52;92.57
30730;BME280;17476;48.458;7.928;2023-04-01T00:48:41;98777.25;;;9.52;92.36
30730;BME280;17476;48.458;7.928;2023-04-01T00:51:13;98787.75;;;9.58;90.64
30730;BME280;17476;48.458;7.928;2023-04-01T00:53:45;98794.72;;;9.51;90.20
30730;BME280;17476;48.458;7.928;2023-04-01T00:56:20;98787.75;;;9.58;90.11
30730;BME280;17476;48.458;7.928;2023-04-01T00:59:31;98783.72;;;9.56;89.67
30730;BME280;17476;48.458;7.928;2023-04-01T01:02:00;98783.06;;;9.54;90.10
30730;BME280;17476;48.458;7.928;2023-04-01T01:04:34;98780.84;;;9.51;90.50
30730;BME280;17476;48.458;7.928;2023-04-01T01:07:45;98790.03;;;9.47;90.50
30730;BME280;17476;48.458;7.928;2023-04-01T01:10:35;98782.78;;;9.42;91.80
30730;BME280;17476;48.458;7.928;2023-04-01T01:13:30;98788.16;;;9.41;92.11
30730;BME280;17476;48.458;7.928;2023-04-01T01:16:29;98788.16;;;9.41;93.13
30730;BME280;17476;48.458;7.928;2023-04-01T01:28:26;98781.81;;;9.28;93.51
30730;BME280;17476;48.458;7.928;2023-04-01T01:37:05;98785.41;;;9.27;95.64
30730;BME280;17476;48.458;7.928;2023-04-01T01:39:34;98787.38;;;9.25;96.41
30730;BME280;17476;48.458;7.928;2023-04-01T01:42:06;98787.38;;;9.25;96.30
30730;BME280;17476;48.458;7.928;2023-04-01T01:44:35;98783.97;;;9.25;95.70
30730;BME280;17476;48.458;7.928;2023-04-01T01:47:02;98783.09;;;9.18;96.85
30730;BME280;17476;48.458;7.928;2023-04-01T01:49:29;98780.28;;;9.19;95.58
30730;BME280;17476;48.458;7.928;2023-04-01T01:51:57;98781.66;;;9.15;95.56
30730;BME280;17476;48.458;7.928;2023-04-01T01:54:23;98773.66;;;9.17;94.83
30730;BME280;17476;48.458;7.928;2023-04-01T01:56:55;98789.50;;;9.15;95.29
30730;BME280;17476;48.458;7.928;2023-04-01T01:59:25;98774.72;;;9.08;95.41
30730;BME280;17476;48.458;7.928;2023-04-01T02:01:55;98771.84;;;9.17;94.23
30730;BME280;17476;48.458;7.928;2023-04-01T02:04:22;98773.03;;;9.15;95.43
30730;BME280;17476;48.458;7.928;2023-04-01T02:07:08;98773.84;;;9.15;94.53
30730;BME280;17476;48.458;7.928;2023-04-01T02:09:37;98769.06;;;9.19;94.78
30730;BME280;17476;48.458;7.928;2023-04-01T02:12:07;98774.81;;;9.14;96.04
30730;BME280;17476;48.458;7.928;2023-04-01T02:17:25;98772.19;;;9.14;96.35
30730;BME280;17476;48.458;7.928;2023-04-01T02:20:11;98778.78;;;9.10;96.08
30730;BME280;17476;48.458;7.928;2023-04-01T02:22:52;98776.81;;;9.12;95.40
30730;BME280;17476;48.458;7.928;2023-04-01T02:25:28;98778.06;;;9.16;95.22
30730;BME280;17476;48.458;7.928;2023-04-01T02:27:57;98774.09;;;9.20;93.41
30730;BME280;17476;48.458;7.928;2023-04-01T02:30:27;98772.47;;;9.19;92.99
30730;BME280;17476;48.458;7.928;2023-04-01T02:32:56;98767.53;;;9.24;94.05
30730;BME280;17476;48.458;7.928;2023-04-01T02:35:23;98781.84;;;9.14;95.17
30730;BME280;17476;48.458;7.928;2023-04-01T02:37:50;98777.16;;;9.24;94.16
30730;BME280;17476;48.458;7.928;2023-04-01T02:40:17;98770.59;;;9.28;93.74
30730;BME280;17476;48.458;7.928;2023-04-01T02:42:44;98769.13;;;9.25;94.10
30730;BME280;17476;48.458;7.928;2023-04-01T02:45:11;98763.72;;;9.42;93.40
30730;BME280;17476;48.458;7.928;2023-04-01T02:47:37;98760.84;;;9.37;94.93
30730;BME280;17476;48.458;7.928;2023-04-01T02:50:04;98758.34;;;9.28;95.85
30730;BME280;17476;48.458;7.928;2023-04-01T02:52:31;98761.13;;;9.27;96.23
30730;BME280;17476;48.458;7.928;2023-04-01T02:54:57;98751.13;;;9.30;95.91
30730;BME280;17476;48.458;7.928;2023-04-01T02:57:24;98748.25;;;9.25;96.94
30730;BME280;17476;48.458;7.928;2023-04-01T02:59:50;98755.03;;;9.41;95.45
30730;BME280;17476;48.458;7.928;2023-04-01T03:02:16;98752.28;;;9.43;94.87
30730;BME280;17476;48.458;7.928;2023-04-01T03:04:42;98752.63;;;9.40;95.73
30730;BME280;17476;48.458;7.928;2023-04-01T03:07:09;98743.69;;;9.49;94.27
30730;BME280;17476;48.458;7.928;2023-04-01T03:09:38;98752.41;;;9.56;94.12
30730;BME280;17476;48.458;7.928;2023-04-01T03:12:07;98742.19;;;9.61;94.59
30730;BME280;17476;48.458;7.928;2023-04-01T03:14:33;98748.53;;;9.52;94.66
30730;BME280;17476;48.458;7.928;2023-04-01T03:16:58;98746.00;;;9.58;94.79
30730;BME280;17476;48.458;7.928;2023-04-01T03:19:24;98745.38;;;9.56;94.51
30730;BME280;17476;48.458;7.928;2023-04-01T03:21:50;98742.94;;;9.55;93.45
30730;BME280;17476;48.458;7.928;2023-04-01T03:24:19;98739.72;;;9.53;94.21
30730;BME280;17476;48.458;7.928;2023-04-01T03:26:45;98739.50;;;9.54;93.71
30730;BME280;17476;48.458;7.928;2023-04-01T03:29:11;98736.28;;;9.52;94.80
30730;BME280;17476;48.458;7.928;2023-04-01T03:31:36;98738.97;;;9.59;92.99
30730;BME280;17476;48.458;7.928;2023-04-01T03:34:05;98732.38;;;9.63;92.76
30730;BME280;17476;48.458;7.928;2023-04-01T03:36:31;98741.38;;;9.61;93.17
30730;BME280;17476;48.458;7.928;2023-04-01T03:38:57;98747.41;;;9.61;92.34
30730;BME280;17476;48.458;7.928;2023-04-01T03:41:22;98739.16;;;9.57;92.60
30730;BME280;17476;48.458;7.928;2023-04-01T03:43:48;98736.06;;;9.69;91.80
30730;BME280;17476;48.458;7.928;2023-04-01T03:46:18;98723.81;;;9.69;91.55
30730;BME280;17476;48.458;7.928;2023-04-01T03:48:44;98727.97;;;9.64;90.35
30730;BME280;17476;48.458;7.928;2023-04-01T03:51:10;98728.66;;;9.72;89.90
30730;BME280;17476;48.458;7.928;2023-04-01T03:53:36;98726.16;;;9.64;90.19
30730;BME280;17476;48.458;7.928;2023-04-01T03:56:06;98729.94;;;9.62;89.84
30730;BME280;17476;48.458;7.928;2023-04-01T03:58:33;98731.06;;;9.52;88.90
30730;BME280;17476;48.458;7.928;2023-04-01T04:00:59;98724.06;;;9.53;89.67
30730;BME280;17476;48.458;7.928;2023-04-01T04:03:25;98717.72;;;9.62;87.32
30730;BME280;17476;48.458;7.928;2023-04-01T04:05:51;98731.13;;;9.59;87.45
30730;BME280;17476;48.458;7.928;2023-04-01T04:08:17;98726.91;;;9.58;88.12
30730;BME280;17476;48.458;7.928;2023-04-01T04:10:44;98735.69;;;9.50;88.25
30730;BME280;17476;48.458;7.928;2023-04-01T04:13:10;98734.13;;;9.56;88.28
30730;BME280;17476;48.458;7.928;2023-04-01T04:15:36;98723.44;;;9.51;87.82
30730;BME280;17476;48.458;7.928;2023-04-01T04:18:02;98731.00;;;9.46;87.51
30730;BME280;17476;48.458;7.928;2023-04-01T04:20:27;98727.25;;;9.48;86.55
30730;BME280;17476;48.458;7.928;2023-04-01T04:22:53;98726.59;;;9.46;87.35
30730;BME280;17476;48.458;7.928;2023-04-01T04:25:19;98721.38;;;9.46;87.94
30730;BME280;17476;48.458;7.928;2023-04-01T04:27:45;98723.44;;;9.51;89.21
30730;BME280;17476;48.458;7.928;2023-04-01T04:30:11;98719.75;;;9.45;90.21
30730;BME280;17476;48.458;7.928;2023-04-01T04:32:37;98721.56;;;9.45;91.12
30730;BME280;17476;48.458;7.928;2023-04-01T04:35:03;98726.97;;;9.43;90.74
30730;BME280;17476;48.458;7.928;2023-04-01T04:37:29;98723.78;;;9.48;90.55
30730;BME280;17476;48.458;7.928;2023-04-01T04:39:55;98739.28;;;9.49;90.72
30730;BME280;17476;48.458;7.928;2023-04-01T04:42:21;98740.31;;;9.55;89.54
30730;BME280;17476;48.458;7.928;2023-04-01T04:44:46;98737.47;;;9.50;89.83
30730;BME280;17476;48.458;7.928;2023-04-01T04:47:12;98729.47;;;9.51;89.64
30730;BME280;17476;48.458;7.928;2023-04-01T04:49:38;98736.84;;;9.48;89.67
30730;BME280;17476;48.458;7.928;2023-04-01T04:52:04;98723.19;;;9.46;89.70
30730;BME280;17476;48.458;7.928;2023-04-01T04:54:30;98727.97;;;9.42;89.89
30730;BME280;17476;48.458;7.928;2023-04-01T04:56:56;98729.72;;;9.35;91.38
30730;BME280;17476;48.458;7.928;2023-04-01T04:59:22;98720.09;;;9.36;89.47
30730;BME280;17476;48.458;7.928;2023-04-01T05:01:47;98703.63;;;9.35;89.57
30730;BME280;17476;48.458;7.928;2023-04-01T05:04:13;98710.75;;;9.26;89.71
30730;BME280;17476;48.458;7.928;2023-04-01T05:06:39;98725.72;;;9.39;89.38
30730;BME280;17476;48.458;7.928;2023-04-01T05:09:05;98713.34;;;9.26;90.84
30730;BME280;17476;48.458;7.928;2023-04-01T05:11:32;98707.97;;;9.28;90.27
30730;BME280;17476;48.458;7.928;2023-04-01T05:13:58;98714.97;;;9.27;90.91
30730;BME280;17476;48.458;7.928;2023-04-01T05:16:23;98712.34;;;9.27;91.37
30730;BME280;17476;48.458;7.928;2023-04-01T05:18:49;98709.88;;;9.41;90.00
30730;BME280;17476;48.458;7.928;2023-04-01T05:21:15;98706.41;;;9.34;90.80
30730;BME280;17476;48.458;7.928;2023-04-01T05:23:41;98705.25;;;9.36;92.05
30730;BME280;17476;48.458;7.928;2023-04-01T05:26:11;98708.84;;;9.35;91.31
30730;BME280;17476;48.458;7.928;2023-04-01T05:28:38;98705.59;;;9.33;91.50
30730;BME280;17476;48.458;7.928;2023-04-01T05:31:04;98711.38;;;9.28;92.03
30730;BME280;17476;48.458;7.928;2023-04-01T05:33:31;98708.41;;;9.32;92.42
30730;BME280;17476;48.458;7.928;2023-04-01T05:36:09;98700.75;;;9.30;92.55
30730;BME280;17476;48.458;7.928;2023-04-01T05:38:36;98707.25;;;9.41;91.98
30730;BME280;17476;48.458;7.928;2023-04-01T05:41:03;98698.75;;;9.32;93.12
30730;BME280;17476;48.458;7.928;2023-04-01T05:43:28;98693.75;;;9.30;93.13
30730;BME280;17476;48.458;7.928;2023-04-01T05:45:56;98704.84;;;9.39;91.87
30730;BME280;17476;48.458;7.928;2023-04-01T05:48:22;98696.03;;;9.40;91.56
30730;BME280;17476;48.458;7.928;2023-04-01T05:50:48;98689.81;;;9.41;91.56
30730;BME280;17476;48.458;7.928;2023-04-01T05:53:14;98687.97;;;9.35;93.28
30730;BME280;17476;48.458;7.928;2023-04-01T05:55:40;98686.66;;;9.46;91.41
30730;BME280;17476;48.458;7.928;2023-04-01T05:58:06;98695.94;;;9.48;90.98
30730;BME280;17476;48.458;7.928;2023-04-01T06:00:31;98683.28;;;9.52;91.76
30730;BME280;17476;48.458;7.928;2023-04-01T06:03:00;98677.47;;;9.50;92.29
30730;BME280;17476;48.458;7.928;2023-04-01T06:05:30;98680.06;;;9.50;91.12
30730;BME280;17476;48.458;7.928;2023-04-01T06:08:02;98681.34;;;9.61;91.02
30730;BME280;17476;48.458;7.928;2023-04-01T06:33:34;98691.16;;;9.80;89.75
30730;BME280;17476;48.458;7.928;2023-04-01T06:48:53;98694.47;;;9.95;90.97
30730;BME280;17476;48.458;7.928;2023-04-01T06:51:20;98703.31;;;9.94;91.63
30730;BME280;17476;48.458;7.928;2023-04-01T06:56:28;98698.44;;;9.84;92.56
30730;BME280;17476;48.458;7.928;2023-04-01T06:59:05;98698.47;;;9.91;92.49
30730;BME280;17476;48.458;7.928;2023-04-01T07:01:35;98701.34;;;9.96;92.00
30730;BME280;17476;48.458;7.928;2023-04-01T07:04:25;98697.28;;;9.94;92.64
30730;BME280;17476;48.458;7.928;2023-04-01T07:09:42;98703.56;;;9.99;93.04
30730;BME280;17476;48.458;7.928;2023-04-01T07:14:59;98697.53;;;9.99;91.80
30730;BME280;17476;48.458;7.928;2023-04-01T07:17:33;98707.34;;;9.97;92.27
30730;BME280;17476;48.458;7.928;2023-04-01T07:20:20;98707.34;;;9.97;91.56
30730;BME280;17476;48.458;7.928;2023-04-01T07:22:49;98708.88;;;10.12;91.31
30730;BME280;17476;48.458;7.928;2023-04-01T07:25:27;98706.41;;;10.04;92.06
30730;BME280;17476;48.458;7.928;2023-04-01T07:28:11;98719.38;;;10.19;91.02
30730;BME280;17476;48.458;7.928;2023-04-01T07:31:13;98717.31;;;10.15;92.01
30730;BME280;17476;48.458;7.928;2023-04-01T07:36:32;98720.94;;;10.13;91.56
30730;BME280;17476;48.458;7.928;2023-04-01T07:45:12;98730.16;;;10.37;91.57
30730;BME280;17476;48.458;7.928;2023-04-01T07:50:27;98736.75;;;10.33;91.21
30730;BME280;17476;48.458;7.928;2023-04-01T07:58:43;98743.00;;;10.32;93.64
30730;BME280;17476;48.458;7.928;2023-04-01T08:01:42;98743.59;;;10.34;93.59
30730;BME280;17476;48.458;7.928;2023-04-01T08:04:29;98753.44;;;10.32;95.43
30730;BME280;17476;48.458;7.928;2023-04-01T08:15:59;98752.09;;;10.36;96.15
30730;BME280;17476;48.458;7.928;2023-04-01T08:21:35;98764.22;;;10.23;96.28
30730;BME280;17476;48.458;7.928;2023-04-01T08:24:22;98768.81;;;10.21;97.87
30730;BME280;17476;48.458;7.928;2023-04-01T08:26:54;98763.66;;;10.27;97.17
30730;BME280;17476;48.458;7.928;2023-04-01T08:29:38;98764.22;;;10.23;99.35
30730;BME280;17476;48.458;7.928;2023-04-01T08:32:15;98770.31;;;10.30;97.92
30730;BME280;17476;48.458;7.928;2023-04-01T08:34:49;98770.09;;;10.25;98.33
30730;BME280;17476;48.458;7.928;2023-04-01T08:37:24;98776.22;;;10.17;98.94
30730;BME280;17476;48.458;7.928;2023-04-01T08:39:57;98770.16;;;10.10;99.59
30730;BME280;17476;48.458;7.928;2023-04-01T08:51:49;98783.47;;;9.94;100.00
30730;BME280;17476;48.458;7.928;2023-04-01T09:08:41;98793.16;;;10.00;100.00
30730;BME280;17476;48.458;7.928;2023-04-01T09:20:27;98810.56;;;9.93;100.00
30730;BME280;17476;48.458;7.928;2023-04-01T09:35:17;98809.88;;;10.05;100.00
30730;BME280;17476;48.458;7.928;2023-04-01T09:40:40;98816.66;;;10.00;100.00
30730;BME280;17476;48.458;7.928;2023-04-01T09:46:26;98806.28;;;10.06;100.00
30730;BME280;17476;48.458;7.928;2023-04-01T09:49:41;98807.41;;;9.97;100.00
30730;BME280;17476;48.458;7.928;2023-04-01T09:52:36;98814.31;;;10.05;100.00
30730;BME280;17476;48.458;7.928;2023-04-01T09:58:16;98810.69;;;10.06;100.00
30730;BME280;17476;48.458;7.928;2023-04-01T10:12:51;98821.25;;;10.19;100.00
30730;BME280;17476;48.458;7.928;2023-04-01T10:15:58;98818.84;;;10.18;100.00
30730;BME280;17476;48.458;7.928;2023-04-01T10:42:40;98833.84;;;10.30;100.00
30730;BME280;17476;48.458;7.928;2023-04-01T10:52:40;98839.03;;;10.24;100.00
30730;BME280;17476;48.458;7.928;2023-04-01T11:02:45;98853.69;;;10.25;100.00
30730;BME280;17476;48.458;7.928;2023-04-01T11:05:38;98847.81;;;10.23;100.00
30730;BME280;17476;48.458;7.928;2023-04-01T11:12:37;98843.25;;;10.25;100.00
30730;BME280;17476;48.458;7.928;2023-04-01T11:30:10;98846.06;;;10.51;100.00
30730;BME280;17476;48.458;7.928;2023-04-01T11:33:03;98858.94;;;10.53;100.00
30730;BME280;17476;48.458;7.928;2023-04-01T11:36:29;98852.09;;;10.52;100.00
30730;BME280;17476;48.458;7.928;2023-04-01T11:39:32;98853.72;;;10.53;100.00
30730;BME280;17476;48.458;7.928;2023-04-01T12:03:36;98858.28;;;10.72;100.00
30730;BME280;17476;48.458;7.928;2023-04-01T12:15:30;98864.00;;;10.89;100.00
30730;BME280;17476;48.458;7.928;2023-04-01T12:21:14;98869.59;;;10.79;100.00
30730;BME280;17476;48.458;7.928;2023-04-01T12:24:10;98878.41;;;10.72;100.00
30730;BME280;17476;48.458;7.928;2023-04-01T12:36:06;98882.44;;;10.74;100.00
30730;BME280;17476;48.458;7.928;2023-04-01T12:45:03;98881.25;;;10.83;100.00
30730;BME280;17476;48.458;7.928;2023-04-01T12:47:58;98878.44;;;10.78;100.00
30730;BME280;17476;48.458;7.928;2023-04-01T12:50:58;98884.88;;;10.82;100.00
30730;BME280;17476;48.458;7.928;2023-04-01T12:54:18;98888.75;;;10.86;100.00
30730;BME280;17476;48.458;7.928;2023-04-01T13:08:26;98885.84;;;10.75;100.00
30730;BME280;17476;48.458;7.928;2023-04-01T13:16:53;98890.28;;;10.74;100.00
30730;BME280;17476;48.458;7.928;2023-04-01T13:25:41;98891.88;;;10.75;99.78
30730;BME280;17476;48.458;7.928;2023-04-01T13:28:35;98900.16;;;10.79;100.00
30730;BME280;17476;48.458;7.928;2023-04-01T13:31:30;98887.50;;;10.82;100.00
30730;BME280;17476;48.458;7.928;2023-04-01T13:34:18;98894.53;;;10.82;100.00
30730;BME280;17476;48.458;7.928;2023-04-01T13:37:02;98889.16;;;10.90;100.00
30730;BME280;17476;48.458;7.928;2023-04-01T13:40:02;98890.09;;;11.10;100.00
30730;BME280;17476;48.458;7.928;2023-04-01T13:42:53;98884.72;;;11.18;97.82
30730;BME280;17476;48.458;7.928;2023-04-01T13:45:27;98891.97;;;11.23;97.28
30730;BME280;17476;48.458;7.928;2023-04-01T13:57:23;98900.19;;;11.55;92.23
30730;BME280;17476;48.458;7.928;2023-04-01T14:00:10;98894.13;;;11.47;94.92
30730;BME280;17476;48.458;7.928;2023-04-01T14:03:30;98901.97;;;11.47;94.44
30730;BME280;17476;48.458;7.928;2023-04-01T14:20:41;98900.91;;;11.35;93.89
30730;BME280;17476;48.458;7.928;2023-04-01T14:23:27;98898.69;;;11.32;95.00
30730;BME280;17476;48.458;7.928;2023-04-01T14:32:48;98890.91;;;11.45;93.83
30730;BME280;17476;48.458;7.928;2023-04-01T14:38:28;98884.66;;;11.46;94.49
30730;BME280;17476;48.458;7.928;2023-04-01T14:41:39;98887.47;;;11.45;91.37
30730;BME280;17476;48.458;7.928;2023-04-01T14:45:02;98889.09;;;11.46;91.19
30730;BME280;17476;48.458;7.928;2023-04-01T14:48:28;98885.44;;;11.40;93.57
30730;BME280;17476;48.458;7.928;2023-04-01T14:50:50;98890.66;;;11.40;92.62
30730;BME280;17476;48.458;7.928;2023-04-01T14:53:30;98881.03;;;11.47;93.13
30730;BME280;17476;48.458;7.928;2023-04-01T14:56:00;98880.63;;;11.51;93.03
30730;BME280;17476;48.458;7.928;2023-04-01T14:58:47;98880.03;;;11.48;91.76
30730;BME280;17476;48.458;7.928;2023-04-01T15:01:50;98877.41;;;11.48;92.76
30730;BME280;17476;48.458;7.928;2023-04-01T15:04:50;98870.56;;;11.47;90.02
30730;BME280;17476;48.458;7.928;2023-04-01T15:16:27;98871.97;;;11.50;91.20
30730;BME280;17476;48.458;7.928;2023-04-01T15:19:19;98879.41;;;11.46;90.30
30730;BME280;17476;48.458;7.928;2023-04-01T15:25:03;98888.88;;;11.47;93.62
30730;BME280;17476;48.458;7.928;2023-04-01T15:33:26;98884.22;;;11.43;93.42
30730;BME280;17476;48.458;7.928;2023-04-01T15:38:48;98888.72;;;11.56;93.19
30730;BME280;17476;48.458;7.928;2023-04-01T15:41:43;98889.31;;;11.58;91.41
30730;BME280;17476;48.458;7.928;2023-04-01T15:47:40;98886.72;;;11.64;90.89
30730;BME280;17476;48.458;7.928;2023-04-01T15:59:29;98891.16;;;11.64;91.61
30730;BME280;17476;48.458;7.928;2023-04-01T16:02:34;98885.75;;;11.72;89.91
30730;BME280;17476;48.458;7.928;2023-04-01T16:08:20;98890.19;;;11.78;88.81
30730;BME280;17476;48.458;7.928;2023-04-01T16:11:04;98889.38;;;11.77;86.96
30730;BME280;17476;48.458;7.928;2023-04-01T16:13:48;98888.84;;;11.89;85.33
30730;BME280;17476;48.458;7.928;2023-04-01T16:17:04;98892.06;;;11.91;84.06
30730;BME280;17476;48.458;7.928;2023-04-01T16:22:23;98882.81;;;11.88;82.73
30730;BME280;17476;48.458;7.928;2023-04-01T16:28:34;98884.03;;;11.92;81.19
30730;BME280;17476;48.458;7.928;2023-04-01T16:34:21;98880.56;;;11.85;82.86
30730;BME280;17476;48.458;7.928;2023-04-01T16:37:29;98876.91;;;11.80;83.69
30730;BME280;17476;48.458;7.928;2023-04-01T16:45:51;98874.88;;;11.75;88.21
30730;BME280;17476;48.458;7.928;2023-04-01T16:48:42;98877.91;;;11.72;88.18
30730;BME280;17476;48.458;7.928;2023-04-01T16:51:16;98886.75;;;11.71;87.98
30730;BME280;17476;48.458;7.928;2023-04-01T16:53:52;98882.88;;;11.60;89.45
30730;BME280;17476;48.458;7.928;2023-04-01T16:56:39;98888.94;;;11.61;88.38
30730;BME280;17476;48.458;7.928;2023-04-01T16:59:21;98892.75;;;11.52;87.12
30730;BME280;17476;48.458;7.928;2023-04-01T17:10:34;98917.44;;;11.42;87.31
30730;BME280;17476;48.458;7.928;2023-04-01T17:13:40;98922.66;;;11.36;87.81
30730;BME280;17476;48.458;7.928;2023-04-01T17:25:07;98929.63;;;11.22;88.45
30730;BME280;17476;48.458;7.928;2023-04-01T17:28:11;98936.47;;;11.23;87.56
30730;BME280;17476;48.458;7.928;2023-04-01T17:42:34;98955.59;;;10.96;89.70
30730;BME280;17476;48.458;7.928;2023-04-01T17:45:24;98974.31;;;10.92;90.04
30730;BME280;17476;48.458;7.928;2023-04-01T17:51:21;98985.53;;;10.86;91.01
30730;BME280;17476;48.458;7.928;2023-04-01T18:00:01;98987.88;;;10.81;90.03
30730;BME280;17476;48.458;7.928;2023-04-01T18:02:35;98981.44;;;10.77;91.10
30730;BME280;17476;48.458;7.928;2023-04-01T18:15:04;99011.44;;;10.60;92.47
30730;BME280;17476;48.458;7.928;2023-04-01T18:20:53;99007.22;;;10.59;93.55
30730;BME280;17476;48.458;7.928;2023-04-01T18:23:35;99011.88;;;10.63;93.05
30730;BME280;17476;48.458;7.928;2023-04-01T18:26:09;99002.59;;;10.61;93.33
30730;BME280;17476;48.458;7.928;2023-04-01T18:28:53;99004.72;;;10.51;94.79
30730;BME280;17476;48.458;7.928;2023-04-01T18:31:24;98997.22;;;10.48;95.07
30730;BME280;17476;48.458;7.928;2023-04-01T18:34:12;99001.31;;;10.50;94.29
30730;BME280;17476;48.458;7.928;2023-04-01T18:36:49;99011.50;;;10.45;94.13
30730;BME280;17476;48.458;7.928;2023-04-01T18:42:44;99001.09;;;10.30;93.57
30730;BME280;17476;48.458;7.928;2023-04-01T18:45:45;99010.72;;;10.15;95.03
30730;BME280;17476;48.458;7.928;2023-04-01T18:56:43;99031.28;;;10.03;94.76
30730;BME280;17476;48.458;7.928;2023-04-01T18:59:45;99030.66;;;10.01;95.96
30730;BME280;17476;48.458;7.928;2023-04-01T19:02:36;99038.25;;;9.96;95.94
30730;BME280;17476;48.458;7.928;2023-04-01T19:05:30;99037.59;;;9.94;97.63
30730;BME280;17476;48.458;7.928;2023-04-01T19:26:02;99041.47;;;9.98;98.25
30730;BME280;17476;48.458;7.928;2023-04-01T19:28:55;99039.84;;;9.97;97.54
30730;BME280;17476;48.458;7.928;2023-04-01T19:32:08;99049.75;;;10.02;97.48
30730;BME280;17476;48.458;7.928;2023-04-01T19:37:52;99118.22;;;10.12;96.86
30730;BME280;17476;48.458;7.928;2023-04-01T19:40:37;99122.97;;;10.08;97.86
30730;BME280;17476;48.458;7.928;2023-04-01T19:43:42;99124.59;;;9.95;98.57
30730;BME280;17476;48.458;7.928;2023-04-01T19:46:25;99128.66;;;9.82;100.00
30730;BME280;17476;48.458;7.928;2023-04-01T19:49:27;99131.41;;;9.81;100.00
30730;BME280;17476;48.458;7.928;2023-04-01T20:00:47;99138.47;;;9.43;100.00
30730;BME280;17476;48.458;7.928;2023-04-01T20:03:47;99143.59;;;9.36;100.00
30730;BME280;17476;48.458;7.928;2023-04-01T20:12:47;99141.19;;;9.26;100.00
30730;BME280;17476;48.458;7.928;2023-04-01T20:18:05;99148.69;;;9.29;100.00
30730;BME280;17476;48.458;7.928;2023-04-01T20:20:32;99146.41;;;9.26;100.00
30730;BME280;17476;48.458;7.928;2023-04-01T20:23:16;99154.59;;;9.23;100.00
30730;BME280;17476;48.458;7.928;2023-04-01T20:26:06;99151.75;;;9.33;100.00
30730;BME280;17476;48.458;7.928;2023-04-01T20:28:43;99160.28;;;9.50;100.00
30730;BME280;17476;48.458;7.928;2023-04-01T20:34:15;99160.44;;;9.48;100.00
30730;BME280;17476;48.458;7.928;2023-04-01T20:46:39;99171.41;;;9.44;100.00
30730;BME280;17476;48.458;7.928;2023-04-01T20:49:41;99174.78;;;9.29;100.00
30730;BME280;17476;48.458;7.928;2023-04-01T21:01:44;99182.81;;;9.20;100.00
30730;BME280;17476;48.458;7.928;2023-04-01T21:04:39;99183.13;;;9.25;100.00
30730;BME280;17476;48.458;7.928;2023-04-01T21:07:43;99186.53;;;9.25;100.00
30730;BME280;17476;48.458;7.928;2023-04-01T21:10:23;99189.38;;;9.16;100.00
30730;BME280;17476;48.458;7.928;2023-04-01T21:15:47;99191.19;;;9.15;100.00
30730;BME280;17476;48.458;7.928;2023-04-01T21:21:40;99202.13;;;9.11;100.00
30730;BME280;17476;48.458;7.928;2023-04-01T21:27:26;99199.75;;;9.01;100.00
30730;BME280;17476;48.458;7.928;2023-04-01T21:46:18;99202.97;;;8.72;100.00
30730;BME280;17476;48.458;7.928;2023-04-01T22:02:35;99218.16;;;8.68;100.00
30730;BME280;17476;48.458;7.928;2023-04-01T22:14:12;99222.97;;;8.80;100.00
30730;BME280;17476;48.458;7.928;2023-04-01T22:17:00;99226.25;;;8.73;100.00
30730;BME280;17476;48.458;7.928;2023-04-01T22:28:51;99220.63;;;8.62;100.00
30730;BME280;17476;48.458;7.928;2023-04-01T22:31:31;99228.47;;;8.54;100.00
30730;BME280;17476;48.458;7.928;2023-04-01T22:37:32;99226.19;;;8.51;100.00
30730;BME280;17476;48.458;7.928;2023-04-01T22:40:24;99218.50;;;8.57;100.00
30730;BME280;17476;48.458;7.928;2023-04-01T22:43:03;99222.72;;;8.58;100.00
30730;BME280;17476;48.458;7.928;2023-04-01T22:46:03;99227.81;;;8.52;100.00
30730;BME280;17476;48.458;7.928;2023-04-01T22:48:46;99233.22;;;8.42;100.00
30730;BME280;17476;48.458;7.928;2023-04-01T22:51:18;99234.19;;;8.41;100.00
30730;BME280;17476;48.458;7.928;2023-04-01T22:56:21;99239.53;;;8.31;100.00
30730;BME280;17476;48.458;7.928;2023-04-01T22:59:10;99237.94;;;8.30;100.00
30730;BME280;17476;48.458;7.928;2023-04-01T23:01:44;99240.53;;;8.30;100.00
30730;BME280;17476;48.458;7.928;2023-04-01T23:04:16;99241.34;;;8.31;100.00
30730;BME280;17476;48.458;7.928;2023-04-01T23:06:51;99241.16;;;8.32;100.00
30730;BME280;17476;48.458;7.928;2023-04-01T23:09:33;99238.56;;;8.32;100.00
30730;BME280;17476;48.458;7.928;2023-04-01T23:12:15;99235.16;;;8.32;100.00
30730;BME280;17476;48.458;7.928;2023-04-01T23:14:58;99224.91;;;8.30;100.00
30730;BME280;17476;48.458;7.928;2023-04-01T23:24:09;99236.94;;;8.31;100.00
30730;BME280;17476;48.458;7.928;2023-04-01T23:26:55;99242.34;;;8.38;100.00